Aérodrome :
LOGIN :

S'inscrire | Disclaimer

   EN    FR    IT 

 










Légende :    VFR   VFR Marginal   IFR   IFR Intensif   IFR Très Intensif
Visi : 
Plafond : 
>= 8 km
>= 3000ft
5 à 8 km
1000 à 3000 ft
1500m à 5 km
500 à 1000 ft
800 à 1500m
200 à 500 ft
< 800m
< 200 ft
Symboles :   Orages  Brouillard  Fortes neiges  Fortes précipitations  Vent > 20 kt
SIGMETs :   Divers  Orages  Givrage  Turbulence  Onde Orograph.  Cendres Volcan.






- Altitude de l'aérodrome : 13 ft
- Code IATA : SNR


LFRZ - St-Nazaire

DERNIER METAR :
  • 150900Z AUTO 26015KT 9999 OVC021 22/17 Q1006 NOSIG

METARs EXPIRÉS :
  • 150830Z AUTO 25015KT 9999 OVC020 21/16 Q1006 NOSIG
  • 150800Z AUTO 25014KT 9999 BKN022 21/16 Q1006 NOSIG
  • 150730Z AUTO 26013KT 9999 OVC021 20/17 Q1006 NOSIG
  • 150700Z AUTO 25012KT 9999 OVC018 20/17 Q1006 TEMPO OVC012
  • 150630Z AUTO 24011KT 9999 OVC019 19/17 Q1006 TEMPO OVC012

TAF TAF LFRZ
Valide du 15 à 06h jusqu'au 16 à 06h UTC


150500Z 1506/1606 25010KT 9999 OVC016
TEMPO 1506/1508 OVC012
BECMG 1508/1510 CAVOK
TEMPO 1522/1603 BKN010
BECMG 1522/1524 18006KT
TEMPO 1603/1606 4500 -SHRA BKN020TCU



MET'MAP, la Météo Aéronautique d'un coup d'oeil ! - Copyright ORBIFLY Décembre 2007 - Disclaimer

ORBIFLY MET'MAP TEAM :

Programmation & Développement : Alexandra Zaïnal
Sur une idée originale de : Baudouin d'Aumeries
Soutien technique & logistique : Manuel Goepfert
Assistance : Marc-Olivier Méhu




SOURCES & CREDITS :

   NOAA